Time;durP1;ratioP1;P1;durP2;ratioP2;P2;SDS_P1;SDS_P2;PMS_P1;PMS_P2;Temp;Humidity;BMP_temperature;BMP_pressure;BME280_temperature;BME280_humidity;BME280_pressure;Samples;Min_cycle;Max_cycle;Signal;HPM_P1;HPM_P2
2023/12/25 00:00:04;;;;;;;1.08;0.82;;;11.60;99.90;;;;;;5051286;28;20210;-56
2023/12/25 00:02:30;;;;;;;1.00;0.90;;;11.60;99.90;;;;;;5051102;28;20213;-56
2023/12/25 00:04:56;;;;;;;0.85;0.60;;;11.60;99.90;;;;;;5051994;28;20293;-57
2023/12/25 00:07:22;;;;;;;0.75;0.75;;;11.60;99.90;;;;;;5051866;28;20597;-57
2023/12/25 00:09:48;;;;;;;1.33;0.90;;;11.60;99.90;;;;;;5051452;28;20249;-56
2023/12/25 00:12:13;;;;;;;1.25;1.15;;;11.60;99.90;;;;;;5052073;28;20206;-57
2023/12/25 00:14:39;;;;;;;0.63;0.63;;;11.60;99.90;;;;;;5051485;28;20170;-56
2023/12/25 00:17:04;;;;;;;0.52;0.52;;;11.60;99.90;;;;;;5051311;28;20159;-57
2023/12/25 00:19:30;;;;;;;0.90;0.70;;;11.60;99.90;;;;;;5051161;28;20220;-56
2023/12/25 00:21:57;;;;;;;2.75;0.95;;;11.60;99.90;;;;;;5051170;28;20175;-55
2023/12/25 00:24:23;;;;;;;0.57;0.57;;;11.60;99.90;;;;;;5051552;28;20225;-55
2023/12/25 00:26:49;;;;;;;3.03;1.17;;;11.70;99.90;;;;;;5050276;28;20630;-55
2023/12/25 00:29:14;;;;;;;1.85;1.23;;;11.70;99.90;;;;;;5051867;28;20202;-56
2023/12/25 00:31:40;;;;;;;1.50;1.10;;;11.60;99.90;;;;;;5051448;28;20599;-56
2023/12/25 00:34:05;;;;;;;1.60;1.02;;;11.60;99.90;;;;;;5051322;28;20198;-56
2023/12/25 00:36:31;;;;;;;1.30;0.82;;;11.60;99.90;;;;;;5051331;28;20622;-56
2023/12/25 00:38:56;;;;;;;3.40;1.20;;;11.60;99.90;;;;;;5051241;28;20175;-55
2023/12/25 00:41:23;;;;;;;1.08;0.80;;;11.60;99.90;;;;;;5051250;28;20185;-56
2023/12/25 00:43:48;;;;;;;1.10;1.00;;;11.60;99.90;;;;;;5051002;28;20173;-56
2023/12/25 00:46:14;;;;;;;0.80;0.80;;;11.60;99.90;;;;;;5051478;28;20175;-57
2023/12/25 00:48:39;;;;;;;1.95;1.13;;;11.60;99.90;;;;;;5051078;28;20534;-56
2023/12/25 00:51:05;;;;;;;1.77;1.30;;;11.60;99.90;;;;;;5050719;28;20175;-56
2023/12/25 00:53:32;;;;;;;1.25;1.15;;;11.60;99.90;;;;;;5050496;28;20533;-56
2023/12/25 00:55:59;;;;;;;1.23;1.10;;;11.50;99.90;;;;;;5051046;28;20228;-56
2023/12/25 00:58:25;;;;;;;1.40;1.17;;;11.50;99.90;;;;;;5049365;28;20175;-56
2023/12/25 01:00:51;;;;;;;1.35;1.10;;;11.50;99.90;;;;;;5050620;28;20734;-56
2023/12/25 01:03:16;;;;;;;0.73;0.73;;;11.50;99.90;;;;;;5051061;28;20166;-56
2023/12/25 01:05:42;;;;;;;1.83;1.35;;;11.50;99.90;;;;;;5051289;28;20178;-56
2023/12/25 01:08:08;;;;;;;1.42;1.33;;;11.50;99.90;;;;;;5050542;28;20167;-56
2023/12/25 01:10:33;;;;;;;1.23;1.13;;;11.50;99.90;;;;;;5051146;28;20178;-56
2023/12/25 01:12:59;;;;;;;1.00;0.90;;;11.50;99.90;;;;;;5050440;28;20619;-56
2023/12/25 01:15:24;;;;;;;1.17;1.08;;;11.50;99.90;;;;;;5050833;28;20531;-56
2023/12/25 01:17:50;;;;;;;2.60;1.17;;;11.50;99.90;;;;;;5050780;28;20163;-56
2023/12/25 01:20:15;;;;;;;1.77;1.13;;;11.50;99.90;;;;;;5050984;28;20285;-56
2023/12/25 01:22:41;;;;;;;0.75;0.65;;;11.80;99.90;;;;;;5050900;28;20244;-56
2023/12/25 01:25:07;;;;;;;1.05;1.00;;;11.50;99.90;;;;;;5050894;28;20528;-56
2023/12/25 01:27:33;;;;;;;2.08;0.93;;;11.50;99.90;;;;;;5052010;28;20175;-57
2023/12/25 01:29:58;;;;;;;1.63;0.98;;;11.50;99.90;;;;;;5054982;28;20189;-57
2023/12/25 01:32:24;;;;;;;1.83;0.80;;;11.50;99.90;;;;;;5055046;28;20175;-57
2023/12/25 01:34:49;;;;;;;0.57;0.50;;;11.60;99.90;;;;;;5053526;28;20534;-57
2023/12/25 01:37:15;;;;;;;0.77;0.75;;;11.60;99.90;;;;;;5055133;28;20171;-57
2023/12/25 01:39:41;;;;;;;2.40;0.90;;;11.60;99.90;;;;;;5054400;28;20272;-57
2023/12/25 01:42:06;;;;;;;2.63;1.00;;;11.60;99.90;;;;;;5054216;28;20171;-57
2023/12/25 01:44:32;;;;;;;1.33;0.85;;;11.60;99.90;;;;;;5054795;28;20257;-57
2023/12/25 01:46:57;;;;;;;2.95;0.65;;;11.70;99.90;;;;;;5054564;28;20615;-56
2023/12/25 01:49:23;;;;;;;0.60;0.60;;;11.50;99.90;;;;;;5054141;28;20205;-57
2023/12/25 01:51:50;;;;;;;1.23;0.45;;;11.50;99.90;;;;;;5054364;28;20573;-56
2023/12/25 01:54:16;;;;;;;1.05;0.95;;;11.50;99.90;;;;;;5053170;28;20557;-56
2023/12/25 01:56:42;;;;;;;0.80;0.80;;;11.50;99.90;;;;;;5054363;28;20190;-56
2023/12/25 01:59:07;;;;;;;1.58;1.10;;;11.50;99.90;;;;;;5054180;28;20212;-57
2023/12/25 02:01:33;;;;;;;0.75;0.57;;;11.60;99.90;;;;;;5054073;28;20174;-56
2023/12/25 02:03:58;;;;;;;1.88;0.75;;;11.60;99.90;;;;;;5052656;28;20220;-56
2023/12/25 02:06:27;;;;;;;1.42;0.90;;;11.60;99.90;;;;;;5054020;28;20277;-56
2023/12/25 02:08:54;;;;;;;1.02;1.00;;;11.60;99.90;;;;;;5053967;28;20714;-56
2023/12/25 02:11:19;;;;;;;1.48;1.02;;;11.50;99.90;;;;;;5053753;28;20191;-56
2023/12/25 02:13:45;;;;;;;2.13;1.00;;;11.50;99.90;;;;;;5054606;28;20177;-56
2023/12/25 02:16:10;;;;;;;2.45;1.15;;;11.50;99.90;;;;;;5053929;28;20536;-56
2023/12/25 02:18:37;;;;;;;0.90;0.82;;;11.60;99.90;;;;;;5053731;28;20581;-56
2023/12/25 02:21:02;;;;;;;0.88;0.80;;;11.60;99.90;;;;;;5053717;28;20599;-56
2023/12/25 02:23:30;;;;;;;1.67;0.90;;;11.60;99.90;;;;;;5053827;28;20213;-56
2023/12/25 02:25:57;;;;;;;1.00;0.90;;;11.60;99.90;;;;;;5053567;28;20705;-56
2023/12/25 02:28:24;;;;;;;0.60;0.60;;;11.50;99.90;;;;;;5053677;28;20270;-56
2023/12/25 02:30:51;;;;;;;0.80;0.80;;;11.50;99.90;;;;;;5053637;28;20213;-56
2023/12/25 02:33:17;;;;;;;2.35;0.73;;;11.50;99.90;;;;;;5049862;28;20588;-56
2023/12/25 02:35:42;;;;;;;0.98;0.85;;;11.50;99.90;;;;;;5053745;28;20175;-57
2023/12/25 02:38:08;;;;;;;1.10;1.00;;;11.50;99.90;;;;;;5058724;28;20190;-56
2023/12/25 02:40:35;;;;;;;1.27;1.00;;;11.50;99.90;;;;;;5052973;28;20214;-57
2023/12/25 02:43:01;;;;;;;0.60;0.60;;;11.50;99.90;;;;;;5053628;28;20178;-57
2023/12/25 02:45:26;;;;;;;1.20;1.10;;;11.40;99.90;;;;;;5053066;28;20190;-58
2023/12/25 02:47:52;;;;;;;0.93;0.90;;;11.40;99.90;;;;;;5052468;28;20170;-57
2023/12/25 02:50:18;;;;;;;2.42;1.27;;;11.40;99.90;;;;;;5053058;28;20193;-57
2023/12/25 02:52:43;;;;;;;1.00;0.80;;;11.40;99.90;;;;;;5053468;28;20170;-58
2023/12/25 02:55:09;;;;;;;0.98;0.90;;;11.40;99.90;;;;;;5052937;28;20219;-58
2023/12/25 02:57:34;;;;;;;1.10;1.00;;;11.40;99.90;;;;;;5053104;28;20583;-57
2023/12/25 03:00:00;;;;;;;1.55;1.10;;;11.40;99.90;;;;;;5052899;28;20206;-57
2023/12/25 03:02:27;;;;;;;0.90;0.90;;;11.30;99.90;;;;;;5052739;28;20181;-56
2023/12/25 03:04:53;;;;;;;0.98;0.88;;;11.30;99.90;;;;;;5052933;28;20190;-56
2023/12/25 03:07:19;;;;;;;1.95;1.08;;;11.30;99.90;;;;;;5052663;28;20248;-56
2023/12/25 03:09:44;;;;;;;0.70;0.70;;;11.20;99.90;;;;;;5052928;28;20182;-56
2023/12/25 03:12:10;;;;;;;5.28;1.58;;;11.30;99.90;;;;;;5052942;28;20167;-56
2023/12/25 03:14:35;;;;;;;1.67;1.20;;;11.30;99.90;;;;;;5052847;28;20206;-56
2023/12/25 03:17:01;;;;;;;1.35;1.25;;;11.20;99.90;;;;;;5052575;28;20181;-56
2023/12/25 03:19:26;;;;;;;1.25;1.15;;;11.20;99.90;;;;;;5052550;28;20195;-56
2023/12/25 03:21:52;;;;;;;2.40;1.30;;;11.30;99.90;;;;;;5052244;28;20189;-56
2023/12/25 03:24:17;;;;;;;2.72;1.05;;;11.20;99.90;;;;;;5052694;28;20614;-56
2023/12/25 03:26:43;;;;;;;1.35;0.95;;;11.30;99.90;;;;;;5052741;28;20500;-56
2023/12/25 03:29:08;;;;;;;1.73;1.38;;;11.30;99.90;;;;;;5052440;28;20212;-56
2023/12/25 03:31:34;;;;;;;0.95;0.90;;;11.30;99.90;;;;;;5052478;28;20170;-56
2023/12/25 03:34:00;;;;;;;3.42;1.50;;;11.40;99.90;;;;;;5052802;28;20170;-56
2023/12/25 03:36:25;;;;;;;3.80;1.60;;;11.40;99.90;;;;;;5052649;28;20320;-57
2023/12/25 03:38:51;;;;;;;1.42;1.33;;;11.40;99.90;;;;;;5052310;28;20692;-57
2023/12/25 03:41:17;;;;;;;1.83;1.60;;;11.40;99.90;;;;;;5052503;28;20179;-58
2023/12/25 03:43:42;;;;;;;5.47;1.48;;;11.40;99.90;;;;;;5052443;28;20182;-57
2023/12/25 03:46:08;;;;;;;2.20;1.50;;;11.40;99.90;;;;;;5052553;28;20221;-58
2023/12/25 03:48:33;;;;;;;4.88;2.17;;;11.40;99.90;;;;;;5051794;28;20170;-57
2023/12/25 03:50:59;;;;;;;6.55;2.03;;;11.40;99.90;;;;;;5051286;28;20181;-58
2023/12/25 03:53:25;;;;;;;1.98;1.80;;;11.40;99.90;;;;;;5051858;28;20634;-56
2023/12/25 03:55:50;;;;;;;1.40;1.30;;;11.40;99.90;;;;;;5050629;28;20274;-55
2023/12/25 03:58:16;;;;;;;3.30;2.00;;;11.40;99.90;;;;;;5051645;28;20212;-56
2023/12/25 04:00:41;;;;;;;2.90;1.60;;;11.40;99.90;;;;;;5052302;28;20214;-58
2023/12/25 04:03:07;;;;;;;2.30;1.30;;;11.40;99.90;;;;;;5051765;28;20216;-56
2023/12/25 04:05:32;;;;;;;2.20;1.30;;;11.40;99.90;;;;;;5051853;28;20174;-57
2023/12/25 04:07:58;;;;;;;1.60;1.50;;;11.40;99.90;;;;;;5051660;28;20174;-58
2023/12/25 04:10:23;;;;;;;2.60;1.60;;;11.40;99.90;;;;;;5051715;28;20255;-56
2023/12/25 04:12:49;;;;;;;4.22;1.30;;;11.40;99.90;;;;;;5051156;28;20254;-56
2023/12/25 04:15:14;;;;;;;4.05;1.45;;;11.50;99.90;;;;;;5051349;28;20171;-56
2023/12/25 04:17:40;;;;;;;1.67;1.02;;;11.50;99.90;;;;;;5051005;28;20171;-56
2023/12/25 04:20:06;;;;;;;4.43;1.25;;;11.60;99.90;;;;;;5051246;28;20206;-56
2023/12/25 04:22:32;;;;;;;2.35;1.48;;;11.60;99.90;;;;;;5051081;28;20166;-56
2023/12/25 04:24:57;;;;;;;2.60;1.67;;;11.60;99.90;;;;;;5051325;28;20175;-56
2023/12/25 04:27:23;;;;;;;1.40;1.30;;;11.60;99.90;;;;;;5051481;28;20198;-56
2023/12/25 04:29:48;;;;;;;2.13;1.60;;;11.60;99.90;;;;;;5050924;28;20212;-56
2023/12/25 04:32:14;;;;;;;1.50;1.40;;;11.60;99.90;;;;;;5051284;28;20630;-56
2023/12/25 04:34:39;;;;;;;1.30;1.20;;;11.60;99.90;;;;;;5050757;28;20264;-56
2023/12/25 04:37:05;;;;;;;1.27;1.13;;;11.60;99.90;;;;;;5051329;28;20174;-57
2023/12/25 04:39:30;;;;;;;1.70;1.40;;;11.60;99.90;;;;;;5050870;28;20202;-56
2023/12/25 04:41:56;;;;;;;1.80;1.27;;;11.60;99.90;;;;;;5050962;28;20182;-56
2023/12/25 04:44:21;;;;;;;1.30;1.20;;;11.60;99.90;;;;;;5051126;28;20171;-56
2023/12/25 04:46:47;;;;;;;2.38;1.10;;;11.60;99.90;;;;;;5049724;28;20634;-56
2023/12/25 04:49:13;;;;;;;0.90;0.90;;;11.60;99.90;;;;;;5051089;28;20174;-58
2023/12/25 04:51:39;;;;;;;1.52;1.25;;;11.60;99.90;;;;;;5050343;28;20603;-57
2023/12/25 04:54:05;;;;;;;1.48;1.38;;;11.60;99.90;;;;;;5050886;28;20222;-56
2023/12/25 04:56:31;;;;;;;1.17;1.08;;;11.60;99.90;;;;;;5050687;28;20190;-56
2023/12/25 04:58:56;;;;;;;2.50;1.40;;;11.60;99.90;;;;;;5051097;28;20534;-56
2023/12/25 05:01:22;;;;;;;1.88;1.15;;;11.60;99.90;;;;;;5051296;28;20197;-56
2023/12/25 05:03:47;;;;;;;2.25;1.13;;;11.60;99.90;;;;;;5056161;28;20166;-56
2023/12/25 05:06:13;;;;;;;1.50;1.17;;;11.60;99.90;;;;;;5057474;28;20182;-56
2023/12/25 05:08:39;;;;;;;0.63;0.55;;;11.50;99.90;;;;;;5056937;28;20239;-57
2023/12/25 05:11:04;;;;;;;1.20;1.10;;;11.50;99.90;;;;;;5057015;28;20261;-57
2023/12/25 05:13:30;;;;;;;0.77;0.77;;;11.50;99.90;;;;;;5057650;28;20170;-57
2023/12/25 05:15:56;;;;;;;0.90;0.85;;;11.50;99.90;;;;;;5057378;28;20178;-56
2023/12/25 05:18:22;;;;;;;1.98;1.08;;;11.50;99.90;;;;;;5056620;28;20649;-56
2023/12/25 05:20:48;;;;;;;1.52;0.80;;;11.40;99.90;;;;;;5057232;28;20682;-56
2023/12/25 05:23:13;;;;;;;4.82;1.17;;;11.40;99.90;;;;;;5057644;28;20191;-56
2023/12/25 05:25:39;;;;;;;2.50;0.98;;;11.40;99.90;;;;;;5057341;28;20181;-56
2023/12/25 05:28:05;;;;;;;1.92;0.80;;;11.40;99.90;;;;;;5056648;28;20170;-57
2023/12/25 05:30:31;;;;;;;0.77;0.68;;;11.40;99.90;;;;;;5057205;28;20170;-56
2023/12/25 05:32:56;;;;;;;0.80;0.77;;;11.30;99.90;;;;;;5057224;28;20699;-56
2023/12/25 05:35:23;;;;;;;2.38;1.10;;;11.40;99.90;;;;;;5057283;28;20175;-56
2023/12/25 05:37:49;;;;;;;0.60;0.60;;;11.30;99.90;;;;;;5055847;28;20166;-56
2023/12/25 05:40:15;;;;;;;2.20;1.05;;;11.40;99.90;;;;;;5057265;28;20248;-56
2023/12/25 05:42:41;;;;;;;0.60;0.52;;;11.40;99.90;;;;;;5055572;28;20171;-56
2023/12/25 05:45:07;;;;;;;2.13;0.63;;;11.30;99.90;;;;;;5056815;28;20178;-56
2023/12/25 05:47:33;;;;;;;1.45;0.90;;;11.30;99.90;;;;;;5055886;28;20209;-56
2023/12/25 05:49:58;;;;;;;3.40;0.90;;;11.40;99.90;;;;;;5061372;28;20600;-56
2023/12/25 05:52:24;;;;;;;1.23;0.70;;;11.40;99.90;;;;;;5056339;28;20676;-56
2023/12/25 05:54:50;;;;;;;0.60;0.60;;;11.30;99.90;;;;;;5056632;28;20218;-56
2023/12/25 05:57:16;;;;;;;1.50;0.98;;;11.40;99.90;;;;;;5057472;28;20544;-56
2023/12/25 05:59:41;;;;;;;1.25;1.15;;;11.40;99.90;;;;;;5057210;28;20263;-56
2023/12/25 06:02:08;;;;;;;0.85;0.80;;;11.40;99.90;;;;;;5055897;28;20257;-56
2023/12/25 06:04:33;;;;;;;1.48;0.65;;;11.40;99.90;;;;;;5056794;28;20174;-56
2023/12/25 06:07:00;;;;;;;0.73;0.73;;;11.40;99.90;;;;;;5056675;28;20181;-56
2023/12/25 06:09:26;;;;;;;0.75;0.52;;;11.40;99.90;;;;;;5056232;28;20162;-56
2023/12/25 06:11:51;;;;;;;0.73;0.73;;;11.40;99.90;;;;;;5056058;28;20622;-56
2023/12/25 06:14:18;;;;;;;1.55;0.75;;;11.50;99.90;;;;;;5053330;28;20220;-56
2023/12/25 06:16:43;;;;;;;0.60;0.60;;;11.40;99.90;;;;;;5053911;28;20617;-56
2023/12/25 06:19:09;;;;;;;0.60;0.60;;;11.50;99.90;;;;;;5053841;28;20238;-56
2023/12/25 06:21:34;;;;;;;0.50;0.50;;;11.40;99.90;;;;;;5052673;28;20235;-56
2023/12/25 06:24:00;;;;;;;0.50;0.50;;;11.50;99.90;;;;;;5053533;28;20201;-56
2023/12/25 06:26:25;;;;;;;1.80;0.30;;;11.40;99.90;;;;;;5053249;28;20300;-56
2023/12/25 06:28:51;;;;;;;0.75;0.75;;;11.40;99.90;;;;;;5053882;28;20170;-56
2023/12/25 06:31:16;;;;;;;0.70;0.70;;;11.40;99.90;;;;;;5053399;28;20173;-56
2023/12/25 06:33:42;;;;;;;0.68;0.60;;;11.40;99.90;;;;;;5053596;28;20182;-56
2023/12/25 06:36:07;;;;;;;0.73;0.73;;;11.40;99.90;;;;;;5052984;28;20254;-56
2023/12/25 06:38:33;;;;;;;1.48;0.75;;;11.30;99.90;;;;;;5052896;28;20190;-56
2023/12/25 06:41:00;;;;;;;1.42;0.68;;;11.40;99.90;;;;;;5053121;28;20252;-55
2023/12/25 06:43:25;;;;;;;1.08;0.98;;;11.40;99.90;;;;;;5053027;28;20695;-57
2023/12/25 06:45:51;;;;;;;0.93;0.80;;;11.40;99.90;;;;;;5053131;28;20174;-56
2023/12/25 06:48:17;;;;;;;2.00;0.70;;;11.40;99.90;;;;;;5052985;28;20174;-55
2023/12/25 06:50:42;;;;;;;2.42;0.77;;;11.40;99.90;;;;;;5053550;28;20534;-56
2023/12/25 06:53:08;;;;;;;0.50;0.50;;;11.40;99.90;;;;;;5053027;28;20250;-56
2023/12/25 06:55:33;;;;;;;0.57;0.57;;;11.40;99.90;;;;;;5052882;28;20252;-56
2023/12/25 06:57:59;;;;;;;0.45;0.45;;;11.40;99.90;;;;;;5052422;28;20236;-56
2023/12/25 07:00:25;;;;;;;2.05;0.80;;;11.40;99.90;;;;;;5052497;28;20210;-56
2023/12/25 07:02:50;;;;;;;2.50;0.80;;;11.40;99.90;;;;;;5060177;28;20171;-57
2023/12/25 07:05:16;;;;;;;1.25;0.90;;;11.40;99.90;;;;;;5052634;28;20189;-56
2023/12/25 07:07:42;;;;;;;1.75;0.60;;;11.40;99.90;;;;;;5052926;28;20556;-55
2023/12/25 07:10:08;;;;;;;2.03;0.80;;;11.40;99.90;;;;;;5052296;28;20232;-56
2023/12/25 07:12:33;;;;;;;2.83;0.60;;;11.40;99.90;;;;;;5051506;28;20221;-56
2023/12/25 07:14:59;;;;;;;0.60;0.50;;;11.40;99.90;;;;;;5051887;28;20174;-57
2023/12/25 07:17:24;;;;;;;0.40;0.40;;;11.40;99.90;;;;;;5051783;28;20637;-56
2023/12/25 07:19:50;;;;;;;1.13;0.70;;;11.40;99.90;;;;;;5052259;28;20213;-58
2023/12/25 07:22:15;;;;;;;2.45;0.90;;;11.40;99.90;;;;;;5052462;28;20249;-56
2023/12/25 07:24:41;;;;;;;0.60;0.40;;;11.40;99.90;;;;;;5052528;28;20220;-56
2023/12/25 07:27:08;;;;;;;0.45;0.45;;;11.40;99.90;;;;;;5051727;28;20249;-56
2023/12/25 07:29:34;;;;;;;1.13;0.70;;;11.40;99.90;;;;;;5051831;28;20665;-56
2023/12/25 07:32:00;;;;;;;0.90;0.52;;;11.40;99.90;;;;;;5052161;28;20254;-56
2023/12/25 07:34:25;;;;;;;0.57;0.57;;;11.40;99.90;;;;;;5051180;28;20640;-54
2023/12/25 07:36:51;;;;;;;0.60;0.60;;;11.40;99.90;;;;;;5052349;28;20171;-55
2023/12/25 07:39:16;;;;;;;1.70;0.90;;;11.40;99.90;;;;;;5052171;28;20178;-55
2023/12/25 07:41:45;;;;;;;0.50;0.50;;;11.40;99.90;;;;;;5052492;28;20201;-55
2023/12/25 07:44:12;;;;;;;0.75;0.75;;;11.50;99.90;;;;;;5051749;28;20178;-55
2023/12/25 07:46:38;;;;;;;1.02;0.70;;;11.50;99.90;;;;;;5050984;28;20189;-55
2023/12/25 07:49:03;;;;;;;0.60;0.60;;;11.50;99.90;;;;;;5051136;28;20166;-55
2023/12/25 07:51:29;;;;;;;0.57;0.57;;;11.50;99.90;;;;;;5050480;28;20669;-56
2023/12/25 07:53:54;;;;;;;1.63;0.70;;;11.50;99.90;;;;;;5050194;28;20716;-55
2023/12/25 07:56:20;;;;;;;0.68;0.68;;;11.50;99.90;;;;;;5051181;28;20175;-55
2023/12/25 07:58:45;;;;;;;0.50;0.50;;;11.50;99.90;;;;;;5051144;28;20664;-56
2023/12/25 08:01:13;;;;;;;0.60;0.45;;;11.50;99.90;;;;;;5051051;28;20798;-56
2023/12/25 08:03:39;;;;;;;0.50;0.50;;;11.50;99.90;;;;;;5050708;28;20262;-56
2023/12/25 08:06:05;;;;;;;0.50;0.40;;;11.50;99.90;;;;;;5051418;28;20202;-55
2023/12/25 08:08:30;;;;;;;0.70;0.70;;;11.60;99.90;;;;;;5051109;28;20647;-55
2023/12/25 08:10:57;;;;;;;0.30;0.30;;;11.60;99.90;;;;;;5050964;28;20250;-55
2023/12/25 08:13:23;;;;;;;0.43;0.43;;;11.60;99.90;;;;;;5050537;28;20258;-56
2023/12/25 08:15:49;;;;;;;0.50;0.50;;;11.60;99.90;;;;;;5051375;28;20229;-56
2023/12/25 08:18:14;;;;;;;0.65;0.65;;;11.60;99.90;;;;;;5052190;28;20178;-56
2023/12/25 08:20:40;;;;;;;0.63;0.55;;;11.60;99.90;;;;;;5051488;28;20229;-56
2023/12/25 08:23:05;;;;;;;0.43;0.43;;;11.60;99.90;;;;;;5051434;28;20178;-56
2023/12/25 08:25:31;;;;;;;0.43;0.32;;;11.70;99.90;;;;;;5052022;28;20175;-55
2023/12/25 08:27:56;;;;;;;0.45;0.40;;;11.70;99.90;;;;;;5051512;28;20622;-56
2023/12/25 08:30:22;;;;;;;0.52;0.45;;;11.70;99.90;;;;;;5051337;28;20170;-56
2023/12/25 08:32:48;;;;;;;0.45;0.43;;;11.70;99.90;;;;;;5051305;28;20166;-56
2023/12/25 08:35:13;;;;;;;0.43;0.43;;;11.70;99.90;;;;;;5051612;28;20206;-56
2023/12/25 08:37:39;;;;;;;0.47;0.47;;;11.80;99.90;;;;;;5050869;28;20171;-58
2023/12/25 08:40:05;;;;;;;1.40;0.60;;;11.80;99.90;;;;;;5051214;28;20206;-56
2023/12/25 08:42:31;;;;;;;0.60;0.60;;;11.80;99.90;;;;;;5051257;28;20163;-56
2023/12/25 08:44:57;;;;;;;0.75;0.75;;;11.80;99.90;;;;;;5051607;28;20185;-56
2023/12/25 08:47:23;;;;;;;0.50;0.50;;;11.80;99.90;;;;;;5051065;28;20700;-56
2023/12/25 08:49:49;;;;;;;0.50;0.50;;;11.80;99.90;;;;;;5051270;28;20535;-57
2023/12/25 08:52:15;;;;;;;2.60;1.17;;;11.80;99.90;;;;;;5051614;28;20249;-56
2023/12/25 08:54:41;;;;;;;1.20;0.68;;;11.90;99.90;;;;;;5051479;28;20213;-56
2023/12/25 08:57:06;;;;;;;0.40;0.40;;;11.80;99.90;;;;;;5051226;28;20261;-56
2023/12/25 08:59:32;;;;;;;0.43;0.43;;;11.80;99.90;;;;;;5051035;28;20182;-57
2023/12/25 09:01:58;;;;;;;0.50;0.50;;;11.90;99.90;;;;;;5051358;28;20179;-57
2023/12/25 09:04:23;;;;;;;0.60;0.60;;;11.90;99.90;;;;;;5051037;28;20636;-56
2023/12/25 09:06:49;;;;;;;0.75;0.60;;;11.90;99.90;;;;;;5051158;28;20589;-57
2023/12/25 09:09:15;;;;;;;0.70;0.68;;;11.90;99.90;;;;;;5051703;28;20171;-56
2023/12/25 09:11:40;;;;;;;0.57;0.57;;;11.90;99.90;;;;;;5051622;28;20617;-56
2023/12/25 09:14:06;;;;;;;0.60;0.60;;;11.90;99.90;;;;;;5050984;28;20308;-57
2023/12/25 09:16:32;;;;;;;0.63;0.50;;;11.80;99.90;;;;;;5050797;28;20170;-56
2023/12/25 09:18:57;;;;;;;0.52;0.52;;;11.90;99.90;;;;;;5050977;28;20574;-56
2023/12/25 09:21:23;;;;;;;1.10;0.75;;;11.90;99.90;;;;;;5050853;28;20206;-56
2023/12/25 09:23:48;;;;;;;0.68;0.60;;;11.90;99.90;;;;;;5050892;28;20238;-56
2023/12/25 09:26:19;;;;;;;1.65;0.45;;;11.90;99.90;;;;;;5051324;28;20293;-56
2023/12/25 09:28:44;;;;;;;0.63;0.63;;;11.90;99.90;;;;;;5051523;28;20173;-56
2023/12/25 09:31:11;;;;;;;0.50;0.50;;;11.90;99.90;;;;;;5050840;28;20518;-56
2023/12/25 09:33:37;;;;;;;0.98;0.68;;;11.90;99.90;;;;;;5049625;28;20178;-56
2023/12/25 09:36:03;;;;;;;0.80;0.60;;;11.90;99.90;;;;;;5050617;28;20175;-56
2023/12/25 09:38:28;;;;;;;1.33;0.50;;;11.90;99.90;;;;;;5051116;28;20183;-56
2023/12/25 09:40:55;;;;;;;0.45;0.45;;;11.90;99.90;;;;;;5050688;28;20198;-56
2023/12/25 09:43:21;;;;;;;0.40;0.40;;;11.90;99.90;;;;;;5050773;28;20181;-57
2023/12/25 09:45:48;;;;;;;0.20;0.20;;;11.90;99.90;;;;;;5050769;28;20162;-56
2023/12/25 09:48:14;;;;;;;0.70;0.52;;;11.90;99.90;;;;;;5050972;28;20179;-56
2023/12/25 09:50:41;;;;;;;0.40;0.40;;;12.00;99.90;;;;;;5054510;28;20166;-56
2023/12/25 09:53:06;;;;;;;1.10;0.40;;;12.00;99.90;;;;;;5054466;28;20265;-56
2023/12/25 09:55:32;;;;;;;0.38;0.38;;;12.00;99.90;;;;;;5052999;28;20622;-56
2023/12/25 09:58:00;;;;;;;2.45;0.68;;;11.90;99.90;;;;;;5054462;28;20654;-56
2023/12/25 10:00:27;;;;;;;0.32;0.30;;;12.00;99.90;;;;;;5054293;28;20198;-56
2023/12/25 10:02:54;;;;;;;0.38;0.38;;;12.00;99.90;;;;;;5054272;28;20170;-56
2023/12/25 10:05:19;;;;;;;0.40;0.40;;;12.00;99.90;;;;;;5054144;28;20163;-56
2023/12/25 10:07:45;;;;;;;1.50;0.73;;;12.00;99.90;;;;;;5053347;28;20178;-56
2023/12/25 10:10:12;;;;;;;0.20;0.20;;;12.00;99.90;;;;;;5054572;28;20177;-56
2023/12/25 10:12:42;;;;;;;0.65;0.20;;;12.00;99.90;;;;;;5053972;28;20162;-56
2023/12/25 10:15:08;;;;;;;0.40;0.40;;;12.00;99.90;;;;;;5054304;28;20181;-56
2023/12/25 10:17:33;;;;;;;0.63;0.63;;;12.00;99.90;;;;;;5053951;28;20179;-56
2023/12/25 10:19:59;;;;;;;0.05;0.05;;;12.00;99.90;;;;;;5053648;28;20218;-56
2023/12/25 10:22:29;;;;;;;0.35;0.35;;;12.00;99.90;;;;;;5053990;28;20159;-57
2023/12/25 10:25:03;;;;;;;0.82;0.43;;;12.00;99.90;;;;;;5052566;28;20166;-58
2023/12/25 10:27:29;;;;;;;1.08;0.52;;;12.00;99.90;;;;;;5054105;28;20276;-57
2023/12/25 10:29:54;;;;;;;0.70;0.40;;;12.00;99.90;;;;;;5053692;28;20184;-56
2023/12/25 10:32:20;;;;;;;0.50;0.50;;;12.00;99.90;;;;;;5053717;28;20170;-57
2023/12/25 10:34:45;;;;;;;0.55;0.55;;;12.00;99.90;;;;;;5053824;28;20170;-56
2023/12/25 10:37:15;;;;;;;0.50;0.50;;;12.00;99.90;;;;;;5054039;28;20167;-57
2023/12/25 10:39:41;;;;;;;0.57;0.57;;;12.00;99.90;;;;;;5054356;28;20195;-56
2023/12/25 10:42:09;;;;;;;0.50;0.50;;;12.00;99.90;;;;;;5053529;28;20177;-57
2023/12/25 10:44:36;;;;;;;0.20;0.20;;;12.00;99.90;;;;;;5053597;28;20603;-57
2023/12/25 10:47:04;;;;;;;0.55;0.55;;;12.10;99.90;;;;;;5053182;28;20170;-57
2023/12/25 10:49:31;;;;;;;0.60;0.60;;;12.10;99.90;;;;;;5053384;28;20171;-56
2023/12/25 10:51:57;;;;;;;0.73;0.60;;;12.10;99.90;;;;;;5053428;28;20218;-57
2023/12/25 10:54:24;;;;;;;0.93;0.40;;;12.10;99.90;;;;;;5053153;28;20210;-57
2023/12/25 10:56:50;;;;;;;0.73;0.73;;;12.10;99.90;;;;;;5053276;28;20257;-56
2023/12/25 10:59:24;;;;;;;0.80;0.63;;;12.10;99.90;;;;;;5052971;28;20201;-56
2023/12/25 11:01:50;;;;;;;1.65;0.55;;;12.10;99.90;;;;;;5053209;28;20336;-56
2023/12/25 11:04:17;;;;;;;0.70;0.70;;;12.20;99.90;;;;;;5053121;28;20159;-56
2023/12/25 11:06:44;;;;;;;0.50;0.50;;;12.20;99.90;;;;;;5053537;28;20167;-56
2023/12/25 11:09:11;;;;;;;0.60;0.57;;;12.20;99.90;;;;;;5053331;28;20178;-56
2023/12/25 11:11:39;;;;;;;1.33;0.90;;;12.20;99.90;;;;;;5052941;28;20167;-56
2023/12/25 11:14:06;;;;;;;0.90;0.90;;;12.20;99.90;;;;;;5053207;28;20225;-57
2023/12/25 11:16:33;;;;;;;0.60;0.60;;;12.30;99.90;;;;;;5052626;28;20175;-56
2023/12/25 11:19:00;;;;;;;1.02;0.90;;;12.30;99.90;;;;;;5053071;28;20163;-57
2023/12/25 11:21:29;;;;;;;0.73;0.73;;;12.30;99.90;;;;;;5052757;28;20209;-58
2023/12/25 11:23:56;;;;;;;0.82;0.80;;;12.30;99.90;;;;;;5052810;28;20167;-59
2023/12/25 11:26:27;;;;;;;0.73;0.73;;;12.30;99.90;;;;;;5052995;28;20182;-59
2023/12/25 11:29:01;;;;;;;0.80;0.80;;;12.30;99.90;;;;;;5052643;28;20408;-58
2023/12/25 11:31:28;;;;;;;1.60;0.75;;;12.30;99.90;;;;;;5052705;28;20167;-57
2023/12/25 11:34:26;;;;;;;0.90;0.90;;;12.30;99.90;;;;;;5050537;28;20170;-58
2023/12/25 11:36:58;;;;;;;0.70;0.70;;;12.30;99.90;;;;;;5052617;28;20209;-55
2023/12/25 11:39:26;;;;;;;0.80;0.80;;;12.30;99.90;;;;;;5052143;28;20163;-55
2023/12/25 11:41:52;;;;;;;2.17;0.90;;;12.40;99.90;;;;;;5052313;28;20552;-57
2023/12/25 11:44:30;;;;;;;1.15;1.13;;;12.30;99.90;;;;;;5052186;28;20225;-58
2023/12/25 11:46:59;;;;;;;0.73;0.73;;;12.40;99.90;;;;;;5050368;28;20170;-58
2023/12/25 11:49:27;;;;;;;0.98;0.90;;;12.40;99.90;;;;;;5051918;28;20178;-57
2023/12/25 11:51:53;;;;;;;0.98;0.98;;;12.40;99.90;;;;;;5051993;28;20166;-58
2023/12/25 11:54:20;;;;;;;0.70;0.70;;;12.40;99.90;;;;;;5051798;28;20682;-58
2023/12/25 11:56:45;;;;;;;1.17;1.10;;;12.40;99.90;;;;;;5051885;28;20249;-58
2023/12/25 11:59:12;;;;;;;1.30;1.20;;;12.40;99.90;;;;;;5052240;28;20701;-57
2023/12/25 12:01:41;;;;;;;2.10;1.00;;;12.40;99.90;;;;;;5049878;28;20182;-58
2023/12/25 12:04:08;;;;;;;1.35;1.25;;;12.40;99.90;;;;;;5051735;28;20194;-58
2023/12/25 12:06:34;;;;;;;1.10;1.10;;;12.40;99.90;;;;;;5051607;28;20209;-56
2023/12/25 12:08:59;;;;;;;1.92;1.73;;;12.40;99.90;;;;;;5051903;28;20677;-56
2023/12/25 12:11:25;;;;;;;1.50;1.40;;;12.40;99.90;;;;;;5051084;28;20198;-59
2023/12/25 12:13:53;;;;;;;3.25;1.20;;;12.40;99.90;;;;;;5051487;28;20588;-58
2023/12/25 12:16:19;;;;;;;1.60;1.50;;;12.40;99.90;;;;;;5051098;28;20167;-57
2023/12/25 12:18:52;;;;;;;1.70;1.48;;;12.40;99.90;;;;;;5051274;28;20174;-58
2023/12/25 12:21:17;;;;;;;3.47;1.35;;;12.40;99.90;;;;;;5051215;28;20213;-57
2023/12/25 12:23:43;;;;;;;1.00;1.00;;;12.40;99.90;;;;;;5051455;28;20170;-58
2023/12/25 12:26:16;;;;;;;1.40;1.30;;;12.30;99.90;;;;;;5051832;28;20179;-59
2023/12/25 12:28:43;;;;;;;1.50;1.40;;;12.40;99.90;;;;;;5052032;28;20174;-59
2023/12/25 12:31:09;;;;;;;1.40;1.30;;;12.30;99.90;;;;;;5051623;28;20194;-59
2023/12/25 12:33:36;;;;;;;1.48;1.38;;;12.30;99.90;;;;;;5051508;28;20639;-59
2023/12/25 12:36:02;;;;;;;1.45;1.35;;;12.40;99.90;;;;;;5050947;28;20202;-59
2023/12/25 12:38:28;;;;;;;1.10;1.10;;;12.30;99.90;;;;;;5051174;28;20167;-59
2023/12/25 12:40:54;;;;;;;1.45;1.35;;;12.30;99.90;;;;;;5051018;28;20307;-59